sensor_id;sensor_type;location;lat;lon;timestamp;temperature;humidity
67901;DHT22;54700;51.796;10.956;2022-11-15T00:01:55;9.50;81.30
67901;DHT22;54700;51.796;10.956;2022-11-15T00:04:21;9.50;81.20
67901;DHT22;54700;51.796;10.956;2022-11-15T00:06:48;9.50;81.00
67901;DHT22;54700;51.796;10.956;2022-11-15T00:09:15;9.50;80.90
67901;DHT22;54700;51.796;10.956;2022-11-15T00:11:43;9.50;80.80
67901;DHT22;54700;51.796;10.956;2022-11-15T00:14:10;9.40;81.00
67901;DHT22;54700;51.796;10.956;2022-11-15T00:16:36;9.30;81.20
67901;DHT22;54700;51.796;10.956;2022-11-15T00:19:03;9.30;81.40
67901;DHT22;54700;51.796;10.956;2022-11-15T00:21:30;9.20;81.60
67901;DHT22;54700;51.796;10.956;2022-11-15T00:23:58;9.20;81.80
67901;DHT22;54700;51.796;10.956;2022-11-15T00:26:24;9.20;82.00
67901;DHT22;54700;51.796;10.956;2022-11-15T00:28:53;9.20;82.10
67901;DHT22;54700;51.796;10.956;2022-11-15T00:31:19;9.20;81.90
67901;DHT22;54700;51.796;10.956;2022-11-15T00:33:46;9.20;82.20
67901;DHT22;54700;51.796;10.956;2022-11-15T00:36:13;9.20;82.20
67901;DHT22;54700;51.796;10.956;2022-11-15T00:38:40;9.20;82.40
67901;DHT22;54700;51.796;10.956;2022-11-15T00:41:07;9.30;82.20
67901;DHT22;54700;51.796;10.956;2022-11-15T00:43:34;9.40;82.10
67901;DHT22;54700;51.796;10.956;2022-11-15T00:46:02;9.30;82.00
67901;DHT22;54700;51.796;10.956;2022-11-15T00:48:29;9.40;82.30
67901;DHT22;54700;51.796;10.956;2022-11-15T00:50:56;9.40;82.30
67901;DHT22;54700;51.796;10.956;2022-11-15T00:53:23;9.50;82.50
67901;DHT22;54700;51.796;10.956;2022-11-15T00:55:50;9.50;82.60
67901;DHT22;54700;51.796;10.956;2022-11-15T00:58:17;9.50;82.30
67901;DHT22;54700;51.796;10.956;2022-11-15T01:00:44;9.60;82.40
67901;DHT22;54700;51.796;10.956;2022-11-15T01:03:12;9.80;82.20
67901;DHT22;54700;51.796;10.956;2022-11-15T01:05:40;9.80;82.00
67901;DHT22;54700;51.796;10.956;2022-11-15T01:08:10;9.90;81.80
67901;DHT22;54700;51.796;10.956;2022-11-15T01:10:38;10.00;81.50
67901;DHT22;54700;51.796;10.956;2022-11-15T01:13:05;10.10;81.30
67901;DHT22;54700;51.796;10.956;2022-11-15T01:15:32;10.20;80.90
67901;DHT22;54700;51.796;10.956;2022-11-15T01:17:58;10.30;80.50
67901;DHT22;54700;51.796;10.956;2022-11-15T01:20:27;10.40;80.20
67901;DHT22;54700;51.796;10.956;2022-11-15T01:22:54;10.50;79.80
67901;DHT22;54700;51.796;10.956;2022-11-15T01:25:20;10.50;79.70
67901;DHT22;54700;51.796;10.956;2022-11-15T01:27:47;10.60;79.70
67901;DHT22;54700;51.796;10.956;2022-11-15T01:30:14;10.50;79.60
67901;DHT22;54700;51.796;10.956;2022-11-15T01:32:41;10.50;79.60
67901;DHT22;54700;51.796;10.956;2022-11-15T01:35:08;10.50;79.60
67901;DHT22;54700;51.796;10.956;2022-11-15T01:37:36;10.40;79.60
67901;DHT22;54700;51.796;10.956;2022-11-15T01:40:03;10.40;79.70
67901;DHT22;54700;51.796;10.956;2022-11-15T01:42:30;10.40;79.80
67901;DHT22;54700;51.796;10.956;2022-11-15T01:44:57;10.30;79.80
67901;DHT22;54700;51.796;10.956;2022-11-15T01:47:24;10.20;79.90
67901;DHT22;54700;51.796;10.956;2022-11-15T01:49:55;10.20;80.10
67901;DHT22;54700;51.796;10.956;2022-11-15T01:52:27;10.10;80.10
67901;DHT22;54700;51.796;10.956;2022-11-15T01:55:00;10.10;80.50
67901;DHT22;54700;51.796;10.956;2022-11-15T01:57:31;10.00;80.70
67901;DHT22;54700;51.796;10.956;2022-11-15T01:59:58;9.90;80.80
67901;DHT22;54700;51.796;10.956;2022-11-15T02:02:27;9.90;80.90
67901;DHT22;54700;51.796;10.956;2022-11-15T02:04:54;9.90;81.10
67901;DHT22;54700;51.796;10.956;2022-11-15T02:07:21;9.80;81.30
67901;DHT22;54700;51.796;10.956;2022-11-15T02:09:48;9.80;81.50
67901;DHT22;54700;51.796;10.956;2022-11-15T02:12:19;9.80;81.60
67901;DHT22;54700;51.796;10.956;2022-11-15T02:14:48;9.70;81.70
67901;DHT22;54700;51.796;10.956;2022-11-15T02:26:14;9.60;82.20
67901;DHT22;54700;51.796;10.956;2022-11-15T02:29:01;9.60;82.20
67901;DHT22;54700;51.796;10.956;2022-11-15T02:31:32;9.50;82.40
67901;DHT22;54700;51.796;10.956;2022-11-15T02:34:08;9.50;82.60
67901;DHT22;54700;51.796;10.956;2022-11-15T02:36:44;9.50;83.00
67901;DHT22;54700;51.796;10.956;2022-11-15T02:39:23;9.40;83.20
67901;DHT22;54700;51.796;10.956;2022-11-15T02:41:57;9.50;83.30
67901;DHT22;54700;51.796;10.956;2022-11-15T02:44:30;9.50;83.30
67901;DHT22;54700;51.796;10.956;2022-11-15T02:47:02;9.40;83.30
67901;DHT22;54700;51.796;10.956;2022-11-15T02:49:40;9.40;84.20
67901;DHT22;54700;51.796;10.956;2022-11-15T02:52:13;9.40;83.40
67901;DHT22;54700;51.796;10.956;2022-11-15T02:54:41;9.40;83.40
67901;DHT22;54700;51.796;10.956;2022-11-15T02:57:10;9.40;83.70
67901;DHT22;54700;51.796;10.956;2022-11-15T03:02:38;9.40;84.10
67901;DHT22;54700;51.796;10.956;2022-11-15T03:05:15;9.40;83.90
67901;DHT22;54700;51.796;10.956;2022-11-15T03:07:48;9.40;83.90
67901;DHT22;54700;51.796;10.956;2022-11-15T03:10:21;9.50;83.80
67901;DHT22;54700;51.796;10.956;2022-11-15T03:12:54;9.50;83.80
67901;DHT22;54700;51.796;10.956;2022-11-15T03:15:24;9.50;83.60
67901;DHT22;54700;51.796;10.956;2022-11-15T03:17:57;9.40;83.60
67901;DHT22;54700;51.796;10.956;2022-11-15T03:20:27;9.40;83.90
67901;DHT22;54700;51.796;10.956;2022-11-15T03:22:56;9.40;83.90
67901;DHT22;54700;51.796;10.956;2022-11-15T03:25:27;9.30;84.10
67901;DHT22;54700;51.796;10.956;2022-11-15T03:27:57;9.20;85.00
67901;DHT22;54700;51.796;10.956;2022-11-15T03:30:28;9.20;84.20
67901;DHT22;54700;51.796;10.956;2022-11-15T03:32:59;9.10;84.30
67901;DHT22;54700;51.796;10.956;2022-11-15T03:35:29;9.00;84.80
67901;DHT22;54700;51.796;10.956;2022-11-15T03:37:59;8.90;85.30
67901;DHT22;54700;51.796;10.956;2022-11-15T03:40:33;8.90;85.50
67901;DHT22;54700;51.796;10.956;2022-11-15T03:43:04;8.90;85.70
67901;DHT22;54700;51.796;10.956;2022-11-15T03:45:41;9.00;85.60
67901;DHT22;54700;51.796;10.956;2022-11-15T03:48:14;9.00;85.30
67901;DHT22;54700;51.796;10.956;2022-11-15T03:50:44;9.10;85.00
67901;DHT22;54700;51.796;10.956;2022-11-15T03:53:13;9.20;84.70
67901;DHT22;54700;51.796;10.956;2022-11-15T03:55:40;9.20;84.30
67901;DHT22;54700;51.796;10.956;2022-11-15T03:58:07;9.30;84.00
67901;DHT22;54700;51.796;10.956;2022-11-15T04:00:33;9.30;83.80
67901;DHT22;54700;51.796;10.956;2022-11-15T04:03:00;9.30;83.60
67901;DHT22;54700;51.796;10.956;2022-11-15T04:05:28;9.40;83.20
67901;DHT22;54700;51.796;10.956;2022-11-15T04:07:55;9.40;83.00
67901;DHT22;54700;51.796;10.956;2022-11-15T04:10:22;9.40;83.00
67901;DHT22;54700;51.796;10.956;2022-11-15T04:12:49;9.40;83.10
67901;DHT22;54700;51.796;10.956;2022-11-15T04:15:16;9.50;83.10
67901;DHT22;54700;51.796;10.956;2022-11-15T04:17:45;9.50;83.00
67901;DHT22;54700;51.796;10.956;2022-11-15T04:20:13;9.50;82.80
67901;DHT22;54700;51.796;10.956;2022-11-15T04:23:00;9.50;82.80
67901;DHT22;54700;51.796;10.956;2022-11-15T04:25:47;9.50;82.80
67901;DHT22;54700;51.796;10.956;2022-11-15T04:28:17;9.50;82.80
67901;DHT22;54700;51.796;10.956;2022-11-15T04:30:44;9.50;82.80
67901;DHT22;54700;51.796;10.956;2022-11-15T04:33:11;9.50;82.80
67901;DHT22;54700;51.796;10.956;2022-11-15T04:35:38;9.50;82.70
67901;DHT22;54700;51.796;10.956;2022-11-15T04:38:07;9.50;82.60
67901;DHT22;54700;51.796;10.956;2022-11-15T04:40:35;9.60;82.70
67901;DHT22;54700;51.796;10.956;2022-11-15T04:43:02;9.60;82.40
67901;DHT22;54700;51.796;10.956;2022-11-15T04:45:29;9.70;82.30
67901;DHT22;54700;51.796;10.956;2022-11-15T04:47:56;9.70;82.20
67901;DHT22;54700;51.796;10.956;2022-11-15T04:50:23;9.70;82.10
67901;DHT22;54700;51.796;10.956;2022-11-15T04:52:50;9.70;82.10
67901;DHT22;54700;51.796;10.956;2022-11-15T04:55:20;9.70;82.00
67901;DHT22;54700;51.796;10.956;2022-11-15T04:57:47;9.70;82.70
67901;DHT22;54700;51.796;10.956;2022-11-15T05:00:15;9.70;81.70
67901;DHT22;54700;51.796;10.956;2022-11-15T05:02:43;9.70;81.60
67901;DHT22;54700;51.796;10.956;2022-11-15T05:05:27;9.70;81.50
67901;DHT22;54700;51.796;10.956;2022-11-15T05:07:54;9.60;81.40
67901;DHT22;54700;51.796;10.956;2022-11-15T05:10:22;9.60;81.40
67901;DHT22;54700;51.796;10.956;2022-11-15T05:12:49;9.60;81.60
67901;DHT22;54700;51.796;10.956;2022-11-15T05:15:16;9.50;81.70
67901;DHT22;54700;51.796;10.956;2022-11-15T05:17:42;9.50;81.80
67901;DHT22;54700;51.796;10.956;2022-11-15T05:20:10;9.50;81.90
67901;DHT22;54700;51.796;10.956;2022-11-15T05:22:37;9.50;82.00
67901;DHT22;54700;51.796;10.956;2022-11-15T05:25:05;9.50;82.20
67901;DHT22;54700;51.796;10.956;2022-11-15T05:27:34;9.60;82.20
67901;DHT22;54700;51.796;10.956;2022-11-15T05:30:01;9.60;82.40
67901;DHT22;54700;51.796;10.956;2022-11-15T05:32:27;9.70;82.30
67901;DHT22;54700;51.796;10.956;2022-11-15T05:34:55;9.70;82.10
67901;DHT22;54700;51.796;10.956;2022-11-15T05:37:21;9.70;82.00
67901;DHT22;54700;51.796;10.956;2022-11-15T05:39:48;9.60;82.10
67901;DHT22;54700;51.796;10.956;2022-11-15T05:42:15;9.60;82.20
67901;DHT22;54700;51.796;10.956;2022-11-15T05:44:45;9.50;82.20
67901;DHT22;54700;51.796;10.956;2022-11-15T05:47:15;9.50;82.30
67901;DHT22;54700;51.796;10.956;2022-11-15T05:49:45;9.40;82.50
67901;DHT22;54700;51.796;10.956;2022-11-15T05:52:14;9.40;82.60
67901;DHT22;54700;51.796;10.956;2022-11-15T05:54:45;9.40;82.70
67901;DHT22;54700;51.796;10.956;2022-11-15T05:57:12;9.40;82.60
67901;DHT22;54700;51.796;10.956;2022-11-15T05:59:41;9.30;82.60
67901;DHT22;54700;51.796;10.956;2022-11-15T06:02:11;9.30;82.60
67901;DHT22;54700;51.796;10.956;2022-11-15T06:04:38;9.30;82.60
67901;DHT22;54700;51.796;10.956;2022-11-15T06:07:12;9.30;82.90
67901;DHT22;54700;51.796;10.956;2022-11-15T06:10:29;9.20;82.90
67901;DHT22;54700;51.796;10.956;2022-11-15T06:13:12;9.20;83.00
67901;DHT22;54700;51.796;10.956;2022-11-15T06:15:42;9.10;83.00
67901;DHT22;54700;51.796;10.956;2022-11-15T06:18:12;9.10;83.30
67901;DHT22;54700;51.796;10.956;2022-11-15T06:20:40;9.00;83.50
67901;DHT22;54700;51.796;10.956;2022-11-15T06:23:11;9.00;83.60
67901;DHT22;54700;51.796;10.956;2022-11-15T06:25:40;9.00;83.50
67901;DHT22;54700;51.796;10.956;2022-11-15T06:28:11;8.90;83.60
67901;DHT22;54700;51.796;10.956;2022-11-15T06:30:38;8.80;83.80
67901;DHT22;54700;51.796;10.956;2022-11-15T06:33:11;8.80;84.10
67901;DHT22;54700;51.796;10.956;2022-11-15T06:35:38;8.60;84.20
67901;DHT22;54700;51.796;10.956;2022-11-15T06:38:07;8.60;84.50
67901;DHT22;54700;51.796;10.956;2022-11-15T06:40:43;8.50;84.80
67901;DHT22;54700;51.796;10.956;2022-11-15T06:43:40;8.50;85.30
67901;DHT22;54700;51.796;10.956;2022-11-15T06:53:06;8.60;86.10
67901;DHT22;54700;51.796;10.956;2022-11-15T06:59:01;8.80;84.80
67901;DHT22;54700;51.796;10.956;2022-11-15T07:05:05;9.20;84.10
67901;DHT22;54700;51.796;10.956;2022-11-15T07:07:37;9.20;82.50
67901;DHT22;54700;51.796;10.956;2022-11-15T07:10:07;9.20;82.30
67901;DHT22;54700;51.796;10.956;2022-11-15T07:12:34;9.20;82.20
67901;DHT22;54700;51.796;10.956;2022-11-15T07:15:01;9.30;82.20
67901;DHT22;54700;51.796;10.956;2022-11-15T07:17:29;9.30;82.20
67901;DHT22;54700;51.796;10.956;2022-11-15T07:19:56;9.20;82.20
67901;DHT22;54700;51.796;10.956;2022-11-15T07:22:23;9.20;82.50
67901;DHT22;54700;51.796;10.956;2022-11-15T07:24:51;9.20;82.50
67901;DHT22;54700;51.796;10.956;2022-11-15T07:27:19;9.20;82.50
67901;DHT22;54700;51.796;10.956;2022-11-15T07:29:46;9.30;82.60
67901;DHT22;54700;51.796;10.956;2022-11-15T07:32:13;9.30;82.20
67901;DHT22;54700;51.796;10.956;2022-11-15T07:34:39;9.40;82.10
67901;DHT22;54700;51.796;10.956;2022-11-15T07:37:06;9.40;82.00
67901;DHT22;54700;51.796;10.956;2022-11-15T07:39:34;9.50;81.80
67901;DHT22;54700;51.796;10.956;2022-11-15T07:42:04;9.50;81.70
67901;DHT22;54700;51.796;10.956;2022-11-15T07:44:50;9.60;81.60
67901;DHT22;54700;51.796;10.956;2022-11-15T07:47:17;9.70;81.60
67901;DHT22;54700;51.796;10.956;2022-11-15T07:49:44;9.70;81.20
67901;DHT22;54700;51.796;10.956;2022-11-15T07:52:12;9.90;80.80
67901;DHT22;54700;51.796;10.956;2022-11-15T07:54:39;10.00;80.10
67901;DHT22;54700;51.796;10.956;2022-11-15T07:57:06;10.10;79.80
67901;DHT22;54700;51.796;10.956;2022-11-15T07:59:34;10.20;79.60
67901;DHT22;54700;51.796;10.956;2022-11-15T08:02:08;10.20;79.20
67901;DHT22;54700;51.796;10.956;2022-11-15T08:04:41;10.30;79.00
67901;DHT22;54700;51.796;10.956;2022-11-15T08:07:12;10.40;78.90
67901;DHT22;54700;51.796;10.956;2022-11-15T08:09:41;10.50;78.80
67901;DHT22;54700;51.796;10.956;2022-11-15T08:12:09;10.50;78.60
67901;DHT22;54700;51.796;10.956;2022-11-15T08:14:40;10.60;78.30
67901;DHT22;54700;51.796;10.956;2022-11-15T08:17:09;10.70;77.90
67901;DHT22;54700;51.796;10.956;2022-11-15T08:19:37;10.80;78.10
67901;DHT22;54700;51.796;10.956;2022-11-15T08:22:04;10.80;77.80
67901;DHT22;54700;51.796;10.956;2022-11-15T08:24:31;10.90;77.70
67901;DHT22;54700;51.796;10.956;2022-11-15T08:27:01;11.00;77.20
67901;DHT22;54700;51.796;10.956;2022-11-15T08:29:40;11.10;76.70
67901;DHT22;54700;51.796;10.956;2022-11-15T08:32:10;11.20;76.60
67901;DHT22;54700;51.796;10.956;2022-11-15T08:34:39;11.40;76.30
67901;DHT22;54700;51.796;10.956;2022-11-15T08:37:06;11.50;75.90
67901;DHT22;54700;51.796;10.956;2022-11-15T08:39:49;11.60;75.70
67901;DHT22;54700;51.796;10.956;2022-11-15T08:42:30;11.70;75.40
67901;DHT22;54700;51.796;10.956;2022-11-15T08:45:02;11.80;75.10
67901;DHT22;54700;51.796;10.956;2022-11-15T08:51:02;12.00;74.60
67901;DHT22;54700;51.796;10.956;2022-11-15T08:53:42;12.20;74.00
67901;DHT22;54700;51.796;10.956;2022-11-15T08:56:42;12.30;73.90
67901;DHT22;54700;51.796;10.956;2022-11-15T08:59:11;12.30;73.70
67901;DHT22;54700;51.796;10.956;2022-11-15T09:01:41;12.30;73.50
67901;DHT22;54700;51.796;10.956;2022-11-15T09:04:11;12.40;73.70
67901;DHT22;54700;51.796;10.956;2022-11-15T09:06:45;12.50;73.20
67901;DHT22;54700;51.796;10.956;2022-11-15T09:09:18;12.60;72.60
67901;DHT22;54700;51.796;10.956;2022-11-15T09:11:45;12.80;71.30
67901;DHT22;54700;51.796;10.956;2022-11-15T09:14:13;12.80;71.00
67901;DHT22;54700;51.796;10.956;2022-11-15T09:16:40;12.80;72.30
67901;DHT22;54700;51.796;10.956;2022-11-15T09:19:07;12.90;71.40
67901;DHT22;54700;51.796;10.956;2022-11-15T09:21:35;12.90;71.10
67901;DHT22;54700;51.796;10.956;2022-11-15T09:24:03;12.90;70.70
67901;DHT22;54700;51.796;10.956;2022-11-15T09:26:31;13.00;70.50
67901;DHT22;54700;51.796;10.956;2022-11-15T09:28:58;13.00;71.20
67901;DHT22;54700;51.796;10.956;2022-11-15T09:31:31;13.00;70.60
67901;DHT22;54700;51.796;10.956;2022-11-15T09:33:58;13.00;70.60
67901;DHT22;54700;51.796;10.956;2022-11-15T09:36:25;13.10;70.40
67901;DHT22;54700;51.796;10.956;2022-11-15T09:38:52;13.10;69.90
67901;DHT22;54700;51.796;10.956;2022-11-15T09:44:22;13.10;69.70
67901;DHT22;54700;51.796;10.956;2022-11-15T09:47:15;13.10;69.80
67901;DHT22;54700;51.796;10.956;2022-11-15T09:50:14;13.10;70.30
67901;DHT22;54700;51.796;10.956;2022-11-15T09:52:49;13.10;70.20
67901;DHT22;54700;51.796;10.956;2022-11-15T09:55:19;13.10;70.30
67901;DHT22;54700;51.796;10.956;2022-11-15T09:58:15;13.10;69.80
67901;DHT22;54700;51.796;10.956;2022-11-15T10:00:50;13.20;69.40
67901;DHT22;54700;51.796;10.956;2022-11-15T10:03:20;13.20;69.60
67901;DHT22;54700;51.796;10.956;2022-11-15T10:05:54;13.30;69.60
67901;DHT22;54700;51.796;10.956;2022-11-15T10:08:26;13.30;69.70
67901;DHT22;54700;51.796;10.956;2022-11-15T10:11:01;13.30;70.20
67901;DHT22;54700;51.796;10.956;2022-11-15T10:13:33;13.40;69.50
67901;DHT22;54700;51.796;10.956;2022-11-15T10:16:04;13.40;69.20
67901;DHT22;54700;51.796;10.956;2022-11-15T10:18:46;13.50;68.90
67901;DHT22;54700;51.796;10.956;2022-11-15T10:21:29;13.50;69.20
67901;DHT22;54700;51.796;10.956;2022-11-15T10:24:07;13.50;68.90
67901;DHT22;54700;51.796;10.956;2022-11-15T10:26:38;13.60;68.40
67901;DHT22;54700;51.796;10.956;2022-11-15T10:29:06;13.60;68.60
67901;DHT22;54700;51.796;10.956;2022-11-15T10:31:38;13.70;69.00
67901;DHT22;54700;51.796;10.956;2022-11-15T10:34:11;13.70;69.00
67901;DHT22;54700;51.796;10.956;2022-11-15T10:40:15;13.80;68.90
67901;DHT22;54700;51.796;10.956;2022-11-15T10:45:47;13.90;68.10
67901;DHT22;54700;51.796;10.956;2022-11-15T10:48:25;13.90;68.00
67901;DHT22;54700;51.796;10.956;2022-11-15T10:50:57;14.00;67.80
67901;DHT22;54700;51.796;10.956;2022-11-15T10:53:30;14.00;67.60
67901;DHT22;54700;51.796;10.956;2022-11-15T10:56:20;14.00;67.50
67901;DHT22;54700;51.796;10.956;2022-11-15T10:58:56;14.00;67.40
67901;DHT22;54700;51.796;10.956;2022-11-15T11:05:26;13.80;67.60
67901;DHT22;54700;51.796;10.956;2022-11-15T11:07:58;13.80;67.60
67901;DHT22;54700;51.796;10.956;2022-11-15T11:10:27;13.80;68.10
67901;DHT22;54700;51.796;10.956;2022-11-15T11:12:54;13.80;68.00
67901;DHT22;54700;51.796;10.956;2022-11-15T11:15:22;13.80;68.40
67901;DHT22;54700;51.796;10.956;2022-11-15T11:18:04;13.80;68.20
67901;DHT22;54700;51.796;10.956;2022-11-15T11:20:38;13.80;68.40
67901;DHT22;54700;51.796;10.956;2022-11-15T11:23:18;13.80;68.40
67901;DHT22;54700;51.796;10.956;2022-11-15T11:26:00;13.80;68.50
67901;DHT22;54700;51.796;10.956;2022-11-15T11:28:38;13.80;68.40
67901;DHT22;54700;51.796;10.956;2022-11-15T11:31:14;13.80;67.90
67901;DHT22;54700;51.796;10.956;2022-11-15T11:33:56;13.90;68.20
67901;DHT22;54700;51.796;10.956;2022-11-15T11:36:35;13.90;68.40
67901;DHT22;54700;51.796;10.956;2022-11-15T11:39:21;14.00;68.10
67901;DHT22;54700;51.796;10.956;2022-11-15T11:42:00;14.00;68.30
67901;DHT22;54700;51.796;10.956;2022-11-15T11:44:38;14.00;68.10
67901;DHT22;54700;51.796;10.956;2022-11-15T11:47:20;14.10;68.10
67901;DHT22;54700;51.796;10.956;2022-11-15T11:49:57;14.00;67.80
67901;DHT22;54700;51.796;10.956;2022-11-15T11:52:30;14.10;67.90
67901;DHT22;54700;51.796;10.956;2022-11-15T11:55:04;14.10;68.10
67901;DHT22;54700;51.796;10.956;2022-11-15T11:57:41;14.20;67.80
67901;DHT22;54700;51.796;10.956;2022-11-15T12:00:16;14.20;67.80
67901;DHT22;54700;51.796;10.956;2022-11-15T12:03:01;14.20;67.50
67901;DHT22;54700;51.796;10.956;2022-11-15T12:05:32;14.30;67.20
67901;DHT22;54700;51.796;10.956;2022-11-15T12:08:08;14.30;67.50
67901;DHT22;54700;51.796;10.956;2022-11-15T12:10:45;14.30;67.40
67901;DHT22;54700;51.796;10.956;2022-11-15T12:13:19;14.30;67.30
67901;DHT22;54700;51.796;10.956;2022-11-15T12:15:51;14.30;67.60
67901;DHT22;54700;51.796;10.956;2022-11-15T12:18:23;14.30;67.20
67901;DHT22;54700;51.796;10.956;2022-11-15T12:20:51;14.30;66.90
67901;DHT22;54700;51.796;10.956;2022-11-15T12:23:23;14.30;66.90
67901;DHT22;54700;51.796;10.956;2022-11-15T12:25:54;14.30;66.90
67901;DHT22;54700;51.796;10.956;2022-11-15T12:28:27;14.30;67.00
67901;DHT22;54700;51.796;10.956;2022-11-15T12:31:03;14.30;67.00
67901;DHT22;54700;51.796;10.956;2022-11-15T12:33:38;14.40;66.50
67901;DHT22;54700;51.796;10.956;2022-11-15T12:36:08;14.40;66.10
67901;DHT22;54700;51.796;10.956;2022-11-15T12:38:53;14.40;66.30
67901;DHT22;54700;51.796;10.956;2022-11-15T12:41:23;14.40;65.80
67901;DHT22;54700;51.796;10.956;2022-11-15T12:43:51;14.30;66.40
67901;DHT22;54700;51.796;10.956;2022-11-15T12:46:20;14.20;66.50
67901;DHT22;54700;51.796;10.956;2022-11-15T12:49:10;14.10;66.80
67901;DHT22;54700;51.796;10.956;2022-11-15T12:52:07;14.00;66.90
67901;DHT22;54700;51.796;10.956;2022-11-15T12:57:50;13.90;67.40
67901;DHT22;54700;51.796;10.956;2022-11-15T13:03:17;13.90;67.40
67901;DHT22;54700;51.796;10.956;2022-11-15T13:08:57;13.90;67.60
67901;DHT22;54700;51.796;10.956;2022-11-15T13:11:47;13.80;68.00
67901;DHT22;54700;51.796;10.956;2022-11-15T13:17:28;13.70;67.90
67901;DHT22;54700;51.796;10.956;2022-11-15T13:20:08;13.70;68.10
67901;DHT22;54700;51.796;10.956;2022-11-15T13:22:44;13.70;69.10
67901;DHT22;54700;51.796;10.956;2022-11-15T13:25:25;13.60;68.30
67901;DHT22;54700;51.796;10.956;2022-11-15T13:28:03;13.60;68.40
67901;DHT22;54700;51.796;10.956;2022-11-15T13:30:39;13.60;68.30
67901;DHT22;54700;51.796;10.956;2022-11-15T13:33:08;13.60;68.10
67901;DHT22;54700;51.796;10.956;2022-11-15T13:35:40;13.60;68.00
67901;DHT22;54700;51.796;10.956;2022-11-15T13:38:11;13.60;68.10
67901;DHT22;54700;51.796;10.956;2022-11-15T13:40:45;13.60;68.10
67901;DHT22;54700;51.796;10.956;2022-11-15T13:43:17;13.60;68.10
67901;DHT22;54700;51.796;10.956;2022-11-15T13:46:06;13.60;68.10
67901;DHT22;54700;51.796;10.956;2022-11-15T13:48:37;13.60;68.20
67901;DHT22;54700;51.796;10.956;2022-11-15T13:51:04;13.60;68.30
67901;DHT22;54700;51.796;10.956;2022-11-15T13:53:34;13.60;68.50
67901;DHT22;54700;51.796;10.956;2022-11-15T13:56:06;13.50;68.60
67901;DHT22;54700;51.796;10.956;2022-11-15T13:58:33;13.50;68.50
67901;DHT22;54700;51.796;10.956;2022-11-15T14:01:03;13.50;68.40
67901;DHT22;54700;51.796;10.956;2022-11-15T14:03:33;13.50;68.30
67901;DHT22;54700;51.796;10.956;2022-11-15T14:06:14;13.50;68.50
67901;DHT22;54700;51.796;10.956;2022-11-15T14:08:57;13.50;68.50
67901;DHT22;54700;51.796;10.956;2022-11-15T14:11:27;13.50;68.50
67901;DHT22;54700;51.796;10.956;2022-11-15T14:14:00;13.50;68.60
67901;DHT22;54700;51.796;10.956;2022-11-15T14:16:38;13.50;68.60
67901;DHT22;54700;51.796;10.956;2022-11-15T14:19:09;13.50;68.50
67901;DHT22;54700;51.796;10.956;2022-11-15T14:21:44;13.50;68.60
67901;DHT22;54700;51.796;10.956;2022-11-15T14:24:35;13.40;68.70
67901;DHT22;54700;51.796;10.956;2022-11-15T14:27:16;13.40;69.10
67901;DHT22;54700;51.796;10.956;2022-11-15T14:29:53;13.30;69.40
67901;DHT22;54700;51.796;10.956;2022-11-15T14:32:21;13.20;69.80
67901;DHT22;54700;51.796;10.956;2022-11-15T14:34:53;13.10;70.10
67901;DHT22;54700;51.796;10.956;2022-11-15T14:37:22;13.00;69.90
67901;DHT22;54700;51.796;10.956;2022-11-15T14:39:50;12.90;69.30
67901;DHT22;54700;51.796;10.956;2022-11-15T14:42:18;12.80;68.70
67901;DHT22;54700;51.796;10.956;2022-11-15T14:44:46;12.80;69.00
67901;DHT22;54700;51.796;10.956;2022-11-15T14:47:13;12.70;69.00
67901;DHT22;54700;51.796;10.956;2022-11-15T14:49:40;12.60;69.30
67901;DHT22;54700;51.796;10.956;2022-11-15T14:52:12;12.60;69.30
67901;DHT22;54700;51.796;10.956;2022-11-15T14:54:51;12.50;69.50
67901;DHT22;54700;51.796;10.956;2022-11-15T14:57:18;12.50;69.40
67901;DHT22;54700;51.796;10.956;2022-11-15T14:59:45;12.40;69.30
67901;DHT22;54700;51.796;10.956;2022-11-15T15:02:14;12.40;69.50
67901;DHT22;54700;51.796;10.956;2022-11-15T15:04:44;12.40;69.50
67901;DHT22;54700;51.796;10.956;2022-11-15T15:07:12;12.40;69.50
67901;DHT22;54700;51.796;10.956;2022-11-15T15:09:39;12.40;69.50
67901;DHT22;54700;51.796;10.956;2022-11-15T15:12:11;12.40;69.50
67901;DHT22;54700;51.796;10.956;2022-11-15T15:14:41;12.30;69.50
67901;DHT22;54700;51.796;10.956;2022-11-15T15:17:08;12.30;69.50
67901;DHT22;54700;51.796;10.956;2022-11-15T15:19:35;12.30;69.80
67901;DHT22;54700;51.796;10.956;2022-11-15T15:22:02;12.20;70.00
67901;DHT22;54700;51.796;10.956;2022-11-15T15:24:30;12.20;70.20
67901;DHT22;54700;51.796;10.956;2022-11-15T15:26:57;12.10;70.40
67901;DHT22;54700;51.796;10.956;2022-11-15T15:29:24;12.10;70.70
67901;DHT22;54700;51.796;10.956;2022-11-15T15:31:51;12.10;70.80
67901;DHT22;54700;51.796;10.956;2022-11-15T15:34:18;12.00;71.00
67901;DHT22;54700;51.796;10.956;2022-11-15T15:36:44;12.00;71.30
67901;DHT22;54700;51.796;10.956;2022-11-15T15:39:11;12.00;71.50
67901;DHT22;54700;51.796;10.956;2022-11-15T15:41:39;11.90;71.60
67901;DHT22;54700;51.796;10.956;2022-11-15T15:44:06;11.90;71.80
67901;DHT22;54700;51.796;10.956;2022-11-15T15:46:33;11.90;72.00
67901;DHT22;54700;51.796;10.956;2022-11-15T15:49:00;11.80;72.00
67901;DHT22;54700;51.796;10.956;2022-11-15T15:51:27;11.80;71.90
67901;DHT22;54700;51.796;10.956;2022-11-15T15:53:54;11.80;72.00
67901;DHT22;54700;51.796;10.956;2022-11-15T15:56:23;11.80;72.10
67901;DHT22;54700;51.796;10.956;2022-11-15T15:58:51;11.80;72.00
67901;DHT22;54700;51.796;10.956;2022-11-15T16:01:18;11.70;71.90
67901;DHT22;54700;51.796;10.956;2022-11-15T16:03:45;11.80;71.80
67901;DHT22;54700;51.796;10.956;2022-11-15T16:06:31;11.80;71.80
67901;DHT22;54700;51.796;10.956;2022-11-15T16:09:01;11.80;71.90
67901;DHT22;54700;51.796;10.956;2022-11-15T16:11:28;11.70;72.00
67901;DHT22;54700;51.796;10.956;2022-11-15T16:13:56;11.70;72.10
67901;DHT22;54700;51.796;10.956;2022-11-15T16:16:23;11.70;72.20
67901;DHT22;54700;51.796;10.956;2022-11-15T16:18:50;11.70;72.40
67901;DHT22;54700;51.796;10.956;2022-11-15T16:21:18;11.60;72.40
67901;DHT22;54700;51.796;10.956;2022-11-15T16:23:45;11.60;72.40
67901;DHT22;54700;51.796;10.956;2022-11-15T16:26:14;11.60;72.50
67901;DHT22;54700;51.796;10.956;2022-11-15T16:28:46;11.60;72.30
67901;DHT22;54700;51.796;10.956;2022-11-15T16:31:14;11.60;72.50
67901;DHT22;54700;51.796;10.956;2022-11-15T16:33:43;11.50;72.60
67901;DHT22;54700;51.796;10.956;2022-11-15T16:36:15;11.50;72.60
67901;DHT22;54700;51.796;10.956;2022-11-15T16:38:48;11.50;72.80
67901;DHT22;54700;51.796;10.956;2022-11-15T16:41:15;11.50;72.80
67901;DHT22;54700;51.796;10.956;2022-11-15T16:43:43;11.50;72.80